»·PEaware :: N16RD KSNA-KCRQ

N16RD :: KSNA-KCRQ

FLIGHT INFORMATION

Flight Status: Arrived
Operator: Privately registered:
United States
More flights under this callsign
Pilot: Brett B. (12105)
Aircraft: CESSNA 172 SKYHAWK
(C172)
More flights by this aircraft type
Origin: KSNA John Wayne-Orange Co
United States
Destination: KCRQ McClellan-Palomar
United States
More flights between these airports :: More routes between these airports
Route: +KSNA V23 OCN KCRQ
File this flight plan on PilotEdge
Remarks: I-2
Altitude:
(Current/Filed)
5,000ft
Speed:
(Current/Filed)
100kts
Departed: 17-Oct-17 11:40 AM
Arrived: 17-Oct-17 01:05 PM
Distance/Time
Traveled:
44nm/1:24
Distance/Time
To Go:
Arrived

Flight Plot

Page will automatically refresh every two minutes.


Map Options




Map Legend


Flown Route
Filed Route
Departure Airport
Arrival Airport
Navaid (VOR, NDB)
Fix

Horizontal Profiles

Position Reports

Time Latitude Longitude Heading Altitude Ground
Speed
17-Oct-17 11:29 33.675412 -117.871526 219 59ft 0kts
17-Oct-17 11:30 33.675412 -117.871526 219 59ft 0kts
17-Oct-17 11:31 33.675412 -117.871526 219 59ft 0kts
17-Oct-17 11:32 33.675412 -117.871526 219 59ft 0kts
17-Oct-17 11:33 33.675412 -117.871526 219 59ft 0kts
17-Oct-17 11:34 33.675412 -117.871526 219 59ft 0kts
17-Oct-17 11:35 33.675412 -117.871526 219 59ft 0kts
17-Oct-17 11:36 33.675412 -117.871526 219 59ft 0kts
17-Oct-17 11:37 33.675412 -117.871526 219 59ft 0kts
17-Oct-17 11:38 33.675412 -117.871526 219 59ft 0kts
17-Oct-17 11:39 33.675412 -117.871526 219 59ft 0kts
17-Oct-17 11:40 33.675411 -117.871527 219 59ft 0kts
17-Oct-17 11:41 33.675028 -117.870942 46 59ft 12kts
17-Oct-17 11:42 33.679706 -117.867900 26 59ft 16kts
17-Oct-17 11:43 33.680826 -117.866436 114 59ft 0kts
17-Oct-17 11:44 33.680031 -117.866105 208 59ft 25kts
17-Oct-17 11:45 33.661034 -117.879125 217 556ft 92kts
17-Oct-17 11:46 33.644420 -117.876662 52 1209ft 64kts
17-Oct-17 11:47 33.662538 -117.854751 45 1460ft 97kts
17-Oct-17 11:48 33.681970 -117.832275 23 1610ft 103kts
17-Oct-17 11:49 33.705938 -117.842135 284 1489ft 85kts
17-Oct-17 11:50 33.690939 -117.859265 207 298ft 67kts
17-Oct-17 11:51 33.678127 -117.867363 229 59ft 20kts
17-Oct-17 11:52 33.678589 -117.868626 25 59ft 7kts
17-Oct-17 11:53 33.680842 -117.866486 115 59ft 0kts
17-Oct-17 11:54 33.680229 -117.865990 197 59ft 14kts
17-Oct-17 11:55 33.667571 -117.880357 225 697ft 77kts
17-Oct-17 11:56 33.647682 -117.888777 187 1509ft 87kts
17-Oct-17 11:57 33.622027 -117.892927 187 2154ft 96kts
17-Oct-17 11:58 33.595254 -117.897201 184 2703ft 101kts
17-Oct-17 11:59 33.568310 -117.887993 162 3201ft 100kts
17-Oct-17 12:00 33.549250 -117.866676 122 3707ft 97kts
17-Oct-17 12:01 33.534429 -117.839002 122 4209ft 98kts
17-Oct-17 12:02 33.519721 -117.811543 122 4684ft 99kts
17-Oct-17 12:03 33.503286 -117.780862 122 4709ft 115kts
17-Oct-17 12:04 33.485786 -117.748200 122 4708ft 116kts
17-Oct-17 12:05 33.468347 -117.715658 122 4715ft 116kts
17-Oct-17 12:06 33.462381 -117.679593 82 4714ft 117kts
17-Oct-17 12:07 33.476684 -117.650279 13 4723ft 116kts
17-Oct-17 12:08 33.510750 -117.653396 327 4129ft 133kts
17-Oct-17 12:09 33.540580 -117.680936 312 3438ft 136kts
17-Oct-17 12:10 33.563909 -117.716560 307 2744ft 134kts
17-Oct-17 12:11 33.585965 -117.750784 307 2336ft 120kts
17-Oct-17 12:12 33.605715 -117.781437 307 2341ft 115kts
17-Oct-17 12:13 33.625181 -117.811655 307 2349ft 114kts
17-Oct-17 12:14 33.645444 -117.843120 307 1912ft 125kts
17-Oct-17 12:15 33.674258 -117.855230 23 886ft 114kts
17-Oct-17 12:16 33.696211 -117.842260 331 830ft 75kts
17-Oct-17 12:17 33.689284 -117.858400 207 299ft 58kts
17-Oct-17 12:18 33.677526 -117.865800 207 59ft 15kts
17-Oct-17 12:19 33.676855 -117.865674 120 59ft 0kts
17-Oct-17 12:20 33.676946 -117.865255 31 59ft 8kts
17-Oct-17 12:21 33.679717 -117.863822 296 59ft 0kts
17-Oct-17 12:22 33.679717 -117.863822 296 59ft 0kts
17-Oct-17 12:23 33.679717 -117.863822 296 59ft 0kts
17-Oct-17 12:24 33.679717 -117.863823 296 59ft 0kts
17-Oct-17 12:25 33.677567 -117.865784 208 59ft 64kts
17-Oct-17 12:26 33.662308 -117.881816 211 897ft 83kts
17-Oct-17 12:27 33.638726 -117.885465 187 1629ft 94kts
17-Oct-17 12:28 33.611982 -117.889789 187 2145ft 97kts
17-Oct-17 12:29 33.585145 -117.894129 187 2643ft 97kts
17-Oct-17 12:30 33.558359 -117.898467 187 3140ft 96kts
17-Oct-17 12:31 33.532532 -117.902644 187 3735ft 89kts
17-Oct-17 12:32 33.508603 -117.906523 187 4411ft 85kts
17-Oct-17 12:33 33.496270 -117.885680 102 4735ft 107kts
17-Oct-17 12:34 33.489373 -117.848980 102 4704ft 113kts
17-Oct-17 12:35 33.482535 -117.812593 102 4706ft 111kts
17-Oct-17 12:36 33.475704 -117.776243 102 4706ft 111kts
17-Oct-17 12:37 33.468894 -117.740012 102 4710ft 111kts
17-Oct-17 12:38 33.462075 -117.703734 102 4718ft 111kts
17-Oct-17 12:39 33.448970 -117.671252 132 4709ft 112kts
17-Oct-17 12:40 33.429385 -117.642522 127 4708ft 112kts
17-Oct-17 12:41 33.410282 -117.612953 128 4706ft 111kts
17-Oct-17 12:42 33.389351 -117.585520 132 4706ft 111kts
17-Oct-17 12:43 33.367982 -117.558608 137 4707ft 111kts
17-Oct-17 12:44 33.344954 -117.533534 137 4706ft 111kts
17-Oct-17 12:45 33.334927 -117.499415 102 4706ft 111kts
17-Oct-17 12:46 33.328083 -117.463057 102 4706ft 111kts
17-Oct-17 12:47 33.321266 -117.426848 102 4706ft 111kts
17-Oct-17 12:48 33.314451 -117.390649 102 4706ft 111kts
17-Oct-17 12:49 33.307614 -117.354340 102 4706ft 111kts
17-Oct-17 12:50 33.300795 -117.318129 102 4706ft 111kts
17-Oct-17 12:51 33.293957 -117.281817 102 4706ft 111kts
17-Oct-17 12:52 33.287139 -117.245615 102 4706ft 111kts
17-Oct-17 12:53 33.280318 -117.209403 102 4706ft 111kts
17-Oct-17 12:54 33.273476 -117.173081 102 4706ft 111kts
17-Oct-17 12:55 33.266660 -117.136895 102 4706ft 111kts
17-Oct-17 12:56 33.259816 -117.100571 102 4706ft 111kts
17-Oct-17 12:57 33.252995 -117.064365 102 4706ft 111kts
17-Oct-17 12:58 33.246175 -117.028171 102 4706ft 111kts
17-Oct-17 12:59 33.219859 -117.003641 152 3937ft 136kts
17-Oct-17 13:00 33.187186 -116.984572 175 3481ft 117kts
17-Oct-17 13:01 33.165828 -117.011012 232 3499ft 113kts
17-Oct-17 13:02 33.165217 -117.046415 282 3501ft 113kts
17-Oct-17 13:03 33.158879 -117.082703 252 3468ft 116kts
17-Oct-17 13:04 33.152348 -117.121155 267 3350ft 111kts
17-Oct-17 13:05 33.147023 -117.158862 257 3026ft 124kts
17-Oct-17 13:06 33.141386 -117.196918 262 2444ft 98kts
17-Oct-17 13:07 33.136352 -117.229391 258 1347ft 94kts
17-Oct-17 13:08 33.132359 -117.254694 258 699ft 68kts
17-Oct-17 13:09 33.128956 -117.275573 259 303ft 44kts
17-Oct-17 13:10 33.127717 -117.279613 198 303ft 0kts
17-Oct-17 13:11 33.127456 -117.277387 190 303ft 9kts
17-Oct-17 13:12 33.127339 -117.277727 264 303ft 0kts
17-Oct-17 13:13 33.127339 -117.277727 264 303ft 0kts
17-Oct-17 13:14 33.127339 -117.277727 264 303ft 0kts
17-Oct-17 13:15 33.127339 -117.277727 264 303ft 0kts
17-Oct-17 13:16 33.127339 -117.277727 264 303ft 0kts
17-Oct-17 13:17 33.127339 -117.277727 264 303ft 0kts
17-Oct-17 13:18 33.127339 -117.277727 264 303ft 0kts
17-Oct-17 13:19 33.127339 -117.277727 264 303ft 0kts
17-Oct-17 13:20 33.127339 -117.277727 264 303ft 0kts
17-Oct-17 13:21 33.127339 -117.277727 264 303ft 0kts
17-Oct-17 13:22 33.127339 -117.277727 264 303ft 0kts
17-Oct-17 13:23 33.127339 -117.277727 264 303ft 0kts
17-Oct-17 13:24 33.127339 -117.277727 264 303ft 0kts

Navigation Log

Ident Type
Flight plan parsing failed, navigation log unavailable